sensor_id;sensor_type;location;lat;lon;timestamp;temperature;humidity
69006;SHT31;56061;51.748;19.620;2023-10-19T00:01:21;0.02;81.27
69006;SHT31;56061;51.748;19.620;2023-10-19T00:03:54;0.07;81.05
69006;SHT31;56061;51.748;19.620;2023-10-19T00:06:24;0.11;80.99
69006;SHT31;56061;51.748;19.620;2023-10-19T00:08:50;0.12;80.96
69006;SHT31;56061;51.748;19.620;2023-10-19T00:11:18;0.12;80.89
69006;SHT31;56061;51.748;19.620;2023-10-19T00:13:47;0.13;80.84
69006;SHT31;56061;51.748;19.620;2023-10-19T00:16:20;0.11;80.62
69006;SHT31;56061;51.748;19.620;2023-10-19T00:18:54;0.09;80.81
69006;SHT31;56061;51.748;19.620;2023-10-19T00:21:24;0.06;81.02
69006;SHT31;56061;51.748;19.620;2023-10-19T00:23:57;0.04;81.19
69006;SHT31;56061;51.748;19.620;2023-10-19T00:26:26;0.04;81.13
69006;SHT31;56061;51.748;19.620;2023-10-19T00:28:55;0.03;80.94
69006;SHT31;56061;51.748;19.620;2023-10-19T00:31:22;0.01;80.72
69006;SHT31;56061;51.748;19.620;2023-10-19T00:33:50;0.03;80.90
69006;SHT31;56061;51.748;19.620;2023-10-19T00:36:23;0.05;81.14
69006;SHT31;56061;51.748;19.620;2023-10-19T00:38:51;0.08;81.16
69006;SHT31;56061;51.748;19.620;2023-10-19T00:41:22;0.08;81.13
69006;SHT31;56061;51.748;19.620;2023-10-19T00:43:54;0.05;80.95
69006;SHT31;56061;51.748;19.620;2023-10-19T00:46:23;0.02;80.77
69006;SHT31;56061;51.748;19.620;2023-10-19T00:48:57;-0.00;81.00
69006;SHT31;56061;51.748;19.620;2023-10-19T00:51:25;-0.01;81.18
69006;SHT31;56061;51.748;19.620;2023-10-19T00:53:56;0.00;81.17
69006;SHT31;56061;51.748;19.620;2023-10-19T00:56:24;0.01;80.92
69006;SHT31;56061;51.748;19.620;2023-10-19T00:58:58;0.04;80.79
69006;SHT31;56061;51.748;19.620;2023-10-19T01:01:38;0.08;80.70
69006;SHT31;56061;51.748;19.620;2023-10-19T01:04:11;0.08;80.57
69006;SHT31;56061;51.748;19.620;2023-10-19T01:06:46;0.05;80.50
69006;SHT31;56061;51.748;19.620;2023-10-19T01:09:23;0.03;80.55
69006;SHT31;56061;51.748;19.620;2023-10-19T01:11:53;0.00;80.68
69006;SHT31;56061;51.748;19.620;2023-10-19T01:14:20;-0.01;80.67
69006;SHT31;56061;51.748;19.620;2023-10-19T01:16:53;-0.05;80.64
69006;SHT31;56061;51.748;19.620;2023-10-19T01:19:23;-0.09;80.71
69006;SHT31;56061;51.748;19.620;2023-10-19T01:21:49;-0.12;80.84
69006;SHT31;56061;51.748;19.620;2023-10-19T01:24:24;-0.13;80.97
69006;SHT31;56061;51.748;19.620;2023-10-19T01:27:08;-0.14;80.99
69006;SHT31;56061;51.748;19.620;2023-10-19T01:29:36;-0.13;80.91
69006;SHT31;56061;51.748;19.620;2023-10-19T01:32:04;-0.11;80.86
69006;SHT31;56061;51.748;19.620;2023-10-19T01:34:34;-0.13;80.70
69006;SHT31;56061;51.748;19.620;2023-10-19T01:37:01;-0.14;80.80
69006;SHT31;56061;51.748;19.620;2023-10-19T01:39:32;-0.16;80.75
69006;SHT31;56061;51.748;19.620;2023-10-19T01:42:04;-0.19;80.72
69006;SHT31;56061;51.748;19.620;2023-10-19T01:44:30;-0.22;80.86
69006;SHT31;56061;51.748;19.620;2023-10-19T01:46:57;-0.24;80.93
69006;SHT31;56061;51.748;19.620;2023-10-19T01:49:24;-0.26;80.95
69006;SHT31;56061;51.748;19.620;2023-10-19T01:51:54;-0.28;81.00
69006;SHT31;56061;51.748;19.620;2023-10-19T01:54:22;-0.29;81.07
69006;SHT31;56061;51.748;19.620;2023-10-19T01:56:51;-0.30;81.13
69006;SHT31;56061;51.748;19.620;2023-10-19T01:59:21;-0.29;81.27
69006;SHT31;56061;51.748;19.620;2023-10-19T02:01:55;-0.27;81.33
69006;SHT31;56061;51.748;19.620;2023-10-19T02:04:23;-0.23;81.46
69006;SHT31;56061;51.748;19.620;2023-10-19T02:06:50;-0.20;81.66
69006;SHT31;56061;51.748;19.620;2023-10-19T02:09:18;-0.17;81.60
69006;SHT31;56061;51.748;19.620;2023-10-19T02:11:52;-0.17;81.49
69006;SHT31;56061;51.748;19.620;2023-10-19T02:14:24;-0.17;81.49
69006;SHT31;56061;51.748;19.620;2023-10-19T02:16:52;-0.13;81.68
69006;SHT31;56061;51.748;19.620;2023-10-19T02:19:27;-0.10;81.81
69006;SHT31;56061;51.748;19.620;2023-10-19T02:21:55;-0.06;81.84
69006;SHT31;56061;51.748;19.620;2023-10-19T02:24:24;-0.02;81.89
69006;SHT31;56061;51.748;19.620;2023-10-19T02:26:51;0.03;81.86
69006;SHT31;56061;51.748;19.620;2023-10-19T02:29:20;0.07;81.95
69006;SHT31;56061;51.748;19.620;2023-10-19T02:31:53;0.09;81.99
69006;SHT31;56061;51.748;19.620;2023-10-19T02:34:20;0.11;81.85
69006;SHT31;56061;51.748;19.620;2023-10-19T02:36:46;0.15;81.72
69006;SHT31;56061;51.748;19.620;2023-10-19T02:39:14;0.18;81.61
69006;SHT31;56061;51.748;19.620;2023-10-19T02:41:43;0.23;81.55
69006;SHT31;56061;51.748;19.620;2023-10-19T02:44:16;0.28;81.40
69006;SHT31;56061;51.748;19.620;2023-10-19T02:49:24;0.36;81.45
69006;SHT31;56061;51.748;19.620;2023-10-19T02:51:52;0.35;81.42
69006;SHT31;56061;51.748;19.620;2023-10-19T02:54:22;0.34;81.40
69006;SHT31;56061;51.748;19.620;2023-10-19T02:56:50;0.32;81.46
69006;SHT31;56061;51.748;19.620;2023-10-19T02:59:22;0.28;81.50
69006;SHT31;56061;51.748;19.620;2023-10-19T03:01:51;0.23;81.53
69006;SHT31;56061;51.748;19.620;2023-10-19T03:04:24;0.18;81.51
69006;SHT31;56061;51.748;19.620;2023-10-19T03:06:51;0.14;81.44
69006;SHT31;56061;51.748;19.620;2023-10-19T03:09:17;0.13;81.50
69006;SHT31;56061;51.748;19.620;2023-10-19T03:11:52;0.12;81.50
69006;SHT31;56061;51.748;19.620;2023-10-19T03:14:21;0.11;81.50
69006;SHT31;56061;51.748;19.620;2023-10-19T03:16:50;0.10;81.50
69006;SHT31;56061;51.748;19.620;2023-10-19T03:19:17;0.10;81.51
69006;SHT31;56061;51.748;19.620;2023-10-19T03:21:43;0.07;81.51
69006;SHT31;56061;51.748;19.620;2023-10-19T03:24:09;0.03;81.53
69006;SHT31;56061;51.748;19.620;2023-10-19T03:26:49;-0.01;81.51
69006;SHT31;56061;51.748;19.620;2023-10-19T03:29:16;-0.05;81.54
69006;SHT31;56061;51.748;19.620;2023-10-19T03:31:48;-0.07;81.60
69006;SHT31;56061;51.748;19.620;2023-10-19T03:34:14;-0.09;81.64
69006;SHT31;56061;51.748;19.620;2023-10-19T03:36:43;-0.11;81.67
69006;SHT31;56061;51.748;19.620;2023-10-19T03:39:10;-0.10;81.70
69006;SHT31;56061;51.748;19.620;2023-10-19T03:41:40;-0.09;81.74
69006;SHT31;56061;51.748;19.620;2023-10-19T03:44:10;-0.06;81.80
69006;SHT31;56061;51.748;19.620;2023-10-19T03:47:06;-0.03;81.83
69006;SHT31;56061;51.748;19.620;2023-10-19T03:49:37;0.00;81.98
69006;SHT31;56061;51.748;19.620;2023-10-19T03:52:05;0.05;82.13
69006;SHT31;56061;51.748;19.620;2023-10-19T03:54:35;0.14;82.28
69006;SHT31;56061;51.748;19.620;2023-10-19T03:57:05;0.19;82.29
69006;SHT31;56061;51.748;19.620;2023-10-19T03:59:44;0.22;82.30
69006;SHT31;56061;51.748;19.620;2023-10-19T04:02:15;0.25;82.33
69006;SHT31;56061;51.748;19.620;2023-10-19T04:04:43;0.27;82.47
69006;SHT31;56061;51.748;19.620;2023-10-19T04:07:09;0.28;82.58
69006;SHT31;56061;51.748;19.620;2023-10-19T04:09:49;0.25;82.46
69006;SHT31;56061;51.748;19.620;2023-10-19T04:12:24;0.21;82.40
69006;SHT31;56061;51.748;19.620;2023-10-19T04:14:54;0.20;82.39
69006;SHT31;56061;51.748;19.620;2023-10-19T04:17:22;0.20;82.40
69006;SHT31;56061;51.748;19.620;2023-10-19T04:19:49;0.23;82.43
69006;SHT31;56061;51.748;19.620;2023-10-19T04:22:20;0.28;82.51
69006;SHT31;56061;51.748;19.620;2023-10-19T04:24:50;0.34;82.54
69006;SHT31;56061;51.748;19.620;2023-10-19T04:27:17;0.41;82.73
69006;SHT31;56061;51.748;19.620;2023-10-19T04:29:43;0.52;82.96
69006;SHT31;56061;51.748;19.620;2023-10-19T04:32:10;0.60;82.90
69006;SHT31;56061;51.748;19.620;2023-10-19T04:34:39;0.65;82.85
69006;SHT31;56061;51.748;19.620;2023-10-19T04:37:05;0.67;82.80
69006;SHT31;56061;51.748;19.620;2023-10-19T04:39:32;0.70;82.87
69006;SHT31;56061;51.748;19.620;2023-10-19T04:42:00;0.72;82.81
69006;SHT31;56061;51.748;19.620;2023-10-19T04:44:26;0.75;82.83
69006;SHT31;56061;51.748;19.620;2023-10-19T04:46:52;0.80;83.01
69006;SHT31;56061;51.748;19.620;2023-10-19T04:49:18;0.84;82.99
69006;SHT31;56061;51.748;19.620;2023-10-19T04:51:44;0.87;82.90
69006;SHT31;56061;51.748;19.620;2023-10-19T04:54:10;0.88;82.88
69006;SHT31;56061;51.748;19.620;2023-10-19T04:56:36;0.90;82.81
69006;SHT31;56061;51.748;19.620;2023-10-19T04:59:02;0.90;82.74
69006;SHT31;56061;51.748;19.620;2023-10-19T05:01:28;0.89;82.70
69006;SHT31;56061;51.748;19.620;2023-10-19T05:03:54;0.89;82.74
69006;SHT31;56061;51.748;19.620;2023-10-19T05:06:20;0.89;82.80
69006;SHT31;56061;51.748;19.620;2023-10-19T05:08:48;0.89;82.83
69006;SHT31;56061;51.748;19.620;2023-10-19T05:11:13;0.88;82.84
69006;SHT31;56061;51.748;19.620;2023-10-19T05:13:39;0.87;82.94
69006;SHT31;56061;51.748;19.620;2023-10-19T05:16:05;0.88;83.10
69006;SHT31;56061;51.748;19.620;2023-10-19T05:18:32;0.91;83.12
69006;SHT31;56061;51.748;19.620;2023-10-19T05:20:59;0.95;83.20
69006;SHT31;56061;51.748;19.620;2023-10-19T05:23:26;0.98;83.12
69006;SHT31;56061;51.748;19.620;2023-10-19T05:25:53;1.03;83.24
69006;SHT31;56061;51.748;19.620;2023-10-19T05:28:25;1.10;83.41
69006;SHT31;56061;51.748;19.620;2023-10-19T05:30:51;1.17;83.35
69006;SHT31;56061;51.748;19.620;2023-10-19T05:33:17;1.20;83.20
69006;SHT31;56061;51.748;19.620;2023-10-19T05:35:47;1.21;83.52
69006;SHT31;56061;51.748;19.620;2023-10-19T05:38:13;1.25;83.86
69006;SHT31;56061;51.748;19.620;2023-10-19T05:40:39;1.25;83.88
69006;SHT31;56061;51.748;19.620;2023-10-19T05:43:08;1.27;83.87
69006;SHT31;56061;51.748;19.620;2023-10-19T05:45:34;1.27;83.79
69006;SHT31;56061;51.748;19.620;2023-10-19T05:48:02;1.31;83.80
69006;SHT31;56061;51.748;19.620;2023-10-19T05:50:35;1.36;83.78
69006;SHT31;56061;51.748;19.620;2023-10-19T05:53:02;1.44;83.72
69006;SHT31;56061;51.748;19.620;2023-10-19T05:55:30;1.52;83.68
69006;SHT31;56061;51.748;19.620;2023-10-19T05:57:58;1.58;83.62
69006;SHT31;56061;51.748;19.620;2023-10-19T06:00:24;1.65;83.60
69006;SHT31;56061;51.748;19.620;2023-10-19T06:02:51;1.70;83.60
69006;SHT31;56061;51.748;19.620;2023-10-19T06:05:18;1.75;83.63
69006;SHT31;56061;51.748;19.620;2023-10-19T06:07:45;1.81;83.65
69006;SHT31;56061;51.748;19.620;2023-10-19T06:10:15;1.86;83.69
69006;SHT31;56061;51.748;19.620;2023-10-19T06:12:43;1.92;83.69
69006;SHT31;56061;51.748;19.620;2023-10-19T06:15:11;1.98;83.69
69006;SHT31;56061;51.748;19.620;2023-10-19T06:17:38;2.07;83.73
69006;SHT31;56061;51.748;19.620;2023-10-19T06:20:07;2.16;83.70
69006;SHT31;56061;51.748;19.620;2023-10-19T06:22:46;2.27;83.69
69006;SHT31;56061;51.748;19.620;2023-10-19T06:25:19;2.39;83.62
69006;SHT31;56061;51.748;19.620;2023-10-19T06:27:47;2.50;83.64
69006;SHT31;56061;51.748;19.620;2023-10-19T06:30:14;2.61;83.54
69006;SHT31;56061;51.748;19.620;2023-10-19T06:32:50;2.67;83.40
69006;SHT31;56061;51.748;19.620;2023-10-19T06:35:20;2.73;83.40
69006;SHT31;56061;51.748;19.620;2023-10-19T06:37:48;2.79;83.38
69006;SHT31;56061;51.748;19.620;2023-10-19T06:40:15;2.84;83.39
69006;SHT31;56061;51.748;19.620;2023-10-19T06:42:43;2.90;83.44
69006;SHT31;56061;51.748;19.620;2023-10-19T06:45:11;2.97;83.47
69006;SHT31;56061;51.748;19.620;2023-10-19T06:47:40;3.07;83.50
69006;SHT31;56061;51.748;19.620;2023-10-19T06:50:13;3.16;83.49
69006;SHT31;56061;51.748;19.620;2023-10-19T06:52:43;3.26;83.41
69006;SHT31;56061;51.748;19.620;2023-10-19T06:55:12;3.35;83.33
69006;SHT31;56061;51.748;19.620;2023-10-19T06:57:42;3.43;83.32
69006;SHT31;56061;51.748;19.620;2023-10-19T07:00:12;3.53;83.40
69006;SHT31;56061;51.748;19.620;2023-10-19T07:02:42;3.63;83.40
69006;SHT31;56061;51.748;19.620;2023-10-19T07:05:15;3.72;83.31
69006;SHT31;56061;51.748;19.620;2023-10-19T07:07:47;3.80;83.30
69006;SHT31;56061;51.748;19.620;2023-10-19T07:10:17;3.87;83.31
69006;SHT31;56061;51.748;19.620;2023-10-19T07:12:44;3.94;83.33
69006;SHT31;56061;51.748;19.620;2023-10-19T07:15:14;4.00;83.22
69006;SHT31;56061;51.748;19.620;2023-10-19T07:17:40;4.10;83.26
69006;SHT31;56061;51.748;19.620;2023-10-19T07:20:08;4.22;83.20
69006;SHT31;56061;51.748;19.620;2023-10-19T07:22:51;4.34;83.11
69006;SHT31;56061;51.748;19.620;2023-10-19T07:25:18;4.46;82.95
69006;SHT31;56061;51.748;19.620;2023-10-19T07:27:48;4.55;82.85
69006;SHT31;56061;51.748;19.620;2023-10-19T07:30:16;4.66;82.90
69006;SHT31;56061;51.748;19.620;2023-10-19T07:32:47;4.78;82.97
69006;SHT31;56061;51.748;19.620;2023-10-19T07:35:17;4.90;82.97
69006;SHT31;56061;51.748;19.620;2023-10-19T07:37:45;5.01;82.92
69006;SHT31;56061;51.748;19.620;2023-10-19T07:40:11;5.14;83.03
69006;SHT31;56061;51.748;19.620;2023-10-19T07:42:40;5.31;82.94
69006;SHT31;56061;51.748;19.620;2023-10-19T07:45:08;5.45;82.76
69006;SHT31;56061;51.748;19.620;2023-10-19T07:47:37;5.62;82.68
69006;SHT31;56061;51.748;19.620;2023-10-19T07:50:08;5.77;82.53
69006;SHT31;56061;51.748;19.620;2023-10-19T07:52:48;5.94;82.48
69006;SHT31;56061;51.748;19.620;2023-10-19T07:55:17;6.03;82.04
69006;SHT31;56061;51.748;19.620;2023-10-19T07:57:45;6.11;81.95
69006;SHT31;56061;51.748;19.620;2023-10-19T08:00:15;6.22;81.98
69006;SHT31;56061;51.748;19.620;2023-10-19T08:02:43;6.35;81.81
69006;SHT31;56061;51.748;19.620;2023-10-19T08:05:12;6.47;81.60
69006;SHT31;56061;51.748;19.620;2023-10-19T08:07:39;6.56;81.40
69006;SHT31;56061;51.748;19.620;2023-10-19T08:10:08;6.69;81.40
69006;SHT31;56061;51.748;19.620;2023-10-19T08:12:37;6.82;81.19
69006;SHT31;56061;51.748;19.620;2023-10-19T08:15:07;6.91;80.89
69006;SHT31;56061;51.748;19.620;2023-10-19T08:17:38;6.99;80.48
69006;SHT31;56061;51.748;19.620;2023-10-19T08:20:08;7.05;80.09
69006;SHT31;56061;51.748;19.620;2023-10-19T08:22:51;7.14;80.09
69006;SHT31;56061;51.748;19.620;2023-10-19T08:25:22;7.22;79.50
69006;SHT31;56061;51.748;19.620;2023-10-19T08:27:50;7.20;78.80
69006;SHT31;56061;51.748;19.620;2023-10-19T08:30:17;7.24;78.44
69006;SHT31;56061;51.748;19.620;2023-10-19T08:32:49;7.30;78.39
69006;SHT31;56061;51.748;19.620;2023-10-19T08:35:17;7.36;77.98
69006;SHT31;56061;51.748;19.620;2023-10-19T08:37:52;7.43;77.88
69006;SHT31;56061;51.748;19.620;2023-10-19T08:40:20;7.48;77.53
69006;SHT31;56061;51.748;19.620;2023-10-19T08:42:48;7.50;77.49
69006;SHT31;56061;51.748;19.620;2023-10-19T08:45:14;7.57;77.46
69006;SHT31;56061;51.748;19.620;2023-10-19T08:47:48;7.62;77.27
69006;SHT31;56061;51.748;19.620;2023-10-19T08:50:22;7.68;77.47
69006;SHT31;56061;51.748;19.620;2023-10-19T08:52:52;7.73;77.26
69006;SHT31;56061;51.748;19.620;2023-10-19T08:55:20;7.73;76.93
69006;SHT31;56061;51.748;19.620;2023-10-19T08:57:58;7.75;76.95
69006;SHT31;56061;51.748;19.620;2023-10-19T09:00:24;7.84;76.80
69006;SHT31;56061;51.748;19.620;2023-10-19T09:02:55;7.92;76.66
69006;SHT31;56061;51.748;19.620;2023-10-19T09:05:22;8.05;76.96
69006;SHT31;56061;51.748;19.620;2023-10-19T09:07:48;8.19;76.94
69006;SHT31;56061;51.748;19.620;2023-10-19T09:10:26;8.27;76.58
69006;SHT31;56061;51.748;19.620;2023-10-19T09:15:25;8.38;75.86
69006;SHT31;56061;51.748;19.620;2023-10-19T09:17:52;8.40;75.38
69006;SHT31;56061;51.748;19.620;2023-10-19T09:20:20;8.44;75.56
69006;SHT31;56061;51.748;19.620;2023-10-19T09:22:53;8.54;75.60
69006;SHT31;56061;51.748;19.620;2023-10-19T09:25:23;8.65;75.40
69006;SHT31;56061;51.748;19.620;2023-10-19T09:27:50;8.72;75.13
69006;SHT31;56061;51.748;19.620;2023-10-19T09:30:17;8.75;74.90
69006;SHT31;56061;51.748;19.620;2023-10-19T09:32:46;8.81;74.76
69006;SHT31;56061;51.748;19.620;2023-10-19T09:35:15;8.84;74.27
69006;SHT31;56061;51.748;19.620;2023-10-19T09:37:44;8.86;74.19
69006;SHT31;56061;51.748;19.620;2023-10-19T09:40:10;8.88;74.27
69006;SHT31;56061;51.748;19.620;2023-10-19T09:42:42;8.93;74.41
69006;SHT31;56061;51.748;19.620;2023-10-19T09:45:14;9.00;74.21
69006;SHT31;56061;51.748;19.620;2023-10-19T09:47:49;9.04;74.20
69006;SHT31;56061;51.748;19.620;2023-10-19T09:50:16;9.10;74.21
69006;SHT31;56061;51.748;19.620;2023-10-19T09:52:42;9.16;74.24
69006;SHT31;56061;51.748;19.620;2023-10-19T09:55:11;9.18;73.86
69006;SHT31;56061;51.748;19.620;2023-10-19T10:00:29;9.06;73.07
69006;SHT31;56061;51.748;19.620;2023-10-19T10:02:57;9.08;73.08
69006;SHT31;56061;51.748;19.620;2023-10-19T10:10:44;9.02;72.40
69006;SHT31;56061;51.748;19.620;2023-10-19T10:15:49;9.06;71.72
69006;SHT31;56061;51.748;19.620;2023-10-19T10:18:20;9.04;71.32
69006;SHT31;56061;51.748;19.620;2023-10-19T10:21:04;9.01;71.65
69006;SHT31;56061;51.748;19.620;2023-10-19T10:23:25;9.02;71.36
69006;SHT31;56061;51.748;19.620;2023-10-19T10:25:58;9.01;71.45
69006;SHT31;56061;51.748;19.620;2023-10-19T10:28:24;9.04;71.10
69006;SHT31;56061;51.748;19.620;2023-10-19T10:33:41;9.01;70.89
69006;SHT31;56061;51.748;19.620;2023-10-19T10:36:14;8.92;70.66
69006;SHT31;56061;51.748;19.620;2023-10-19T10:38:43;8.83;70.58
69006;SHT31;56061;51.748;19.620;2023-10-19T10:41:10;8.72;70.56
69006;SHT31;56061;51.748;19.620;2023-10-19T10:43:52;8.60;70.80
69006;SHT31;56061;51.748;19.620;2023-10-19T10:46:21;8.52;71.19
69006;SHT31;56061;51.748;19.620;2023-10-19T10:48:48;8.48;71.49
69006;SHT31;56061;51.748;19.620;2023-10-19T10:51:24;8.44;71.83
69006;SHT31;56061;51.748;19.620;2023-10-19T10:53:55;8.48;72.20
69006;SHT31;56061;51.748;19.620;2023-10-19T10:56:23;8.54;72.19
69006;SHT31;56061;51.748;19.620;2023-10-19T10:58:49;8.58;71.96
69006;SHT31;56061;51.748;19.620;2023-10-19T11:01:31;8.58;72.02
69006;SHT31;56061;51.748;19.620;2023-10-19T11:04:09;8.61;71.96
69006;SHT31;56061;51.748;19.620;2023-10-19T11:06:50;8.58;71.63
69006;SHT31;56061;51.748;19.620;2023-10-19T11:09:20;8.57;71.89
69006;SHT31;56061;51.748;19.620;2023-10-19T11:11:47;8.54;71.73
69006;SHT31;56061;51.748;19.620;2023-10-19T11:14:14;8.55;71.93
69006;SHT31;56061;51.748;19.620;2023-10-19T11:16:41;8.55;71.95
69006;SHT31;56061;51.748;19.620;2023-10-19T11:19:08;8.55;71.96
69006;SHT31;56061;51.748;19.620;2023-10-19T11:21:35;8.54;72.03
69006;SHT31;56061;51.748;19.620;2023-10-19T11:24:01;8.55;72.38
69006;SHT31;56061;51.748;19.620;2023-10-19T11:26:28;8.60;72.19
69006;SHT31;56061;51.748;19.620;2023-10-19T11:31:25;8.66;72.55
69006;SHT31;56061;51.748;19.620;2023-10-19T11:33:52;8.70;72.40
69006;SHT31;56061;51.748;19.620;2023-10-19T11:36:24;8.73;72.34
69006;SHT31;56061;51.748;19.620;2023-10-19T11:38:52;8.75;72.22
69006;SHT31;56061;51.748;19.620;2023-10-19T11:41:18;8.70;72.02
69006;SHT31;56061;51.748;19.620;2023-10-19T11:43:45;8.65;72.18
69006;SHT31;56061;51.748;19.620;2023-10-19T11:46:13;8.62;72.44
69006;SHT31;56061;51.748;19.620;2023-10-19T11:48:40;8.61;72.33
69006;SHT31;56061;51.748;19.620;2023-10-19T11:51:08;8.56;72.13
69006;SHT31;56061;51.748;19.620;2023-10-19T11:53:37;8.53;72.52
69006;SHT31;56061;51.748;19.620;2023-10-19T11:56:04;8.55;72.62
69006;SHT31;56061;51.748;19.620;2023-10-19T11:58:38;8.60;72.79
69006;SHT31;56061;51.748;19.620;2023-10-19T12:01:07;8.64;72.67
69006;SHT31;56061;51.748;19.620;2023-10-19T12:03:37;8.63;72.55
69006;SHT31;56061;51.748;19.620;2023-10-19T12:06:08;8.62;72.86
69006;SHT31;56061;51.748;19.620;2023-10-19T12:08:36;8.65;72.71
69006;SHT31;56061;51.748;19.620;2023-10-19T12:11:04;8.63;72.87
69006;SHT31;56061;51.748;19.620;2023-10-19T12:13:35;8.62;72.80
69006;SHT31;56061;51.748;19.620;2023-10-19T12:16:03;8.57;72.68
69006;SHT31;56061;51.748;19.620;2023-10-19T12:18:30;8.54;73.17
69006;SHT31;56061;51.748;19.620;2023-10-19T12:20:56;8.54;73.44
69006;SHT31;56061;51.748;19.620;2023-10-19T12:23:25;8.54;73.79
69006;SHT31;56061;51.748;19.620;2023-10-19T12:25:52;8.54;73.89
69006;SHT31;56061;51.748;19.620;2023-10-19T12:28:23;8.52;74.27
69006;SHT31;56061;51.748;19.620;2023-10-19T12:30:50;8.53;74.58
69006;SHT31;56061;51.748;19.620;2023-10-19T12:33:16;8.53;74.78
69006;SHT31;56061;51.748;19.620;2023-10-19T12:35:42;8.54;75.13
69006;SHT31;56061;51.748;19.620;2023-10-19T12:38:26;8.53;75.28
69006;SHT31;56061;51.748;19.620;2023-10-19T12:40:52;8.51;75.61
69006;SHT31;56061;51.748;19.620;2023-10-19T12:43:19;8.50;75.74
69006;SHT31;56061;51.748;19.620;2023-10-19T12:45:48;8.49;75.85
69006;SHT31;56061;51.748;19.620;2023-10-19T12:48:19;8.50;76.16
69006;SHT31;56061;51.748;19.620;2023-10-19T12:50:46;8.50;76.22
69006;SHT31;56061;51.748;19.620;2023-10-19T12:53:13;8.51;76.28
69006;SHT31;56061;51.748;19.620;2023-10-19T12:55:39;8.47;76.35
69006;SHT31;56061;51.748;19.620;2023-10-19T12:58:05;8.41;76.57
69006;SHT31;56061;51.748;19.620;2023-10-19T13:00:40;8.34;76.89
69006;SHT31;56061;51.748;19.620;2023-10-19T13:03:09;8.24;77.07
69006;SHT31;56061;51.748;19.620;2023-10-19T13:05:39;8.17;77.46
69006;SHT31;56061;51.748;19.620;2023-10-19T13:08:13;8.12;77.93
69006;SHT31;56061;51.748;19.620;2023-10-19T13:10:43;8.10;78.11
69006;SHT31;56061;51.748;19.620;2023-10-19T13:13:14;8.09;78.30
69006;SHT31;56061;51.748;19.620;2023-10-19T13:15:42;8.12;78.57
69006;SHT31;56061;51.748;19.620;2023-10-19T13:18:12;8.13;78.64
69006;SHT31;56061;51.748;19.620;2023-10-19T13:20:39;8.09;78.78
69006;SHT31;56061;51.748;19.620;2023-10-19T13:23:09;8.09;78.93
69006;SHT31;56061;51.748;19.620;2023-10-19T13:25:41;8.07;78.98
69006;SHT31;56061;51.748;19.620;2023-10-19T13:28:11;8.04;79.12
69006;SHT31;56061;51.748;19.620;2023-10-19T13:30:39;8.01;79.38
69006;SHT31;56061;51.748;19.620;2023-10-19T13:33:09;7.98;79.41
69006;SHT31;56061;51.748;19.620;2023-10-19T13:35:36;7.96;79.67
69006;SHT31;56061;51.748;19.620;2023-10-19T13:38:04;7.97;79.82
69006;SHT31;56061;51.748;19.620;2023-10-19T13:40:32;7.93;79.72
69006;SHT31;56061;51.748;19.620;2023-10-19T13:42:58;7.85;79.73
69006;SHT31;56061;51.748;19.620;2023-10-19T13:45:25;7.79;80.16
69006;SHT31;56061;51.748;19.620;2023-10-19T13:47:51;7.74;80.33
69006;SHT31;56061;51.748;19.620;2023-10-19T13:50:23;7.76;80.62
69006;SHT31;56061;51.748;19.620;2023-10-19T13:52:52;7.74;80.64
69006;SHT31;56061;51.748;19.620;2023-10-19T13:55:19;7.70;80.87
69006;SHT31;56061;51.748;19.620;2023-10-19T13:57:46;7.66;80.90
69006;SHT31;56061;51.748;19.620;2023-10-19T14:00:14;7.64;81.08
69006;SHT31;56061;51.748;19.620;2023-10-19T14:02:45;7.61;81.14
69006;SHT31;56061;51.748;19.620;2023-10-19T14:05:14;7.58;81.21
69006;SHT31;56061;51.748;19.620;2023-10-19T14:07:41;7.60;81.34
69006;SHT31;56061;51.748;19.620;2023-10-19T14:10:07;7.63;81.32
69006;SHT31;56061;51.748;19.620;2023-10-19T14:12:37;7.58;81.30
69006;SHT31;56061;51.748;19.620;2023-10-19T14:15:08;7.54;81.41
69006;SHT31;56061;51.748;19.620;2023-10-19T14:17:39;7.52;81.59
69006;SHT31;56061;51.748;19.620;2023-10-19T14:20:06;7.50;81.66
69006;SHT31;56061;51.748;19.620;2023-10-19T14:22:40;7.48;81.81
69006;SHT31;56061;51.748;19.620;2023-10-19T14:25:15;7.44;81.92
69006;SHT31;56061;51.748;19.620;2023-10-19T14:27:42;7.40;81.98
69006;SHT31;56061;51.748;19.620;2023-10-19T14:30:10;7.38;82.21
69006;SHT31;56061;51.748;19.620;2023-10-19T14:32:48;7.35;82.33
69006;SHT31;56061;51.748;19.620;2023-10-19T14:35:16;7.34;82.50
69006;SHT31;56061;51.748;19.620;2023-10-19T14:37:46;7.36;82.59
69006;SHT31;56061;51.748;19.620;2023-10-19T14:40:16;7.40;82.61
69006;SHT31;56061;51.748;19.620;2023-10-19T14:43:10;7.42;82.66
69006;SHT31;56061;51.748;19.620;2023-10-19T14:45:36;7.47;82.72
69006;SHT31;56061;51.748;19.620;2023-10-19T14:48:03;7.50;82.71
69006;SHT31;56061;51.748;19.620;2023-10-19T14:50:30;7.54;82.70
69006;SHT31;56061;51.748;19.620;2023-10-19T14:52:56;7.55;82.76
69006;SHT31;56061;51.748;19.620;2023-10-19T14:55:22;7.58;82.70
69006;SHT31;56061;51.748;19.620;2023-10-19T14:57:50;7.60;82.74
69006;SHT31;56061;51.748;19.620;2023-10-19T15:00:19;7.63;82.76
69006;SHT31;56061;51.748;19.620;2023-10-19T15:02:48;7.61;82.74
69006;SHT31;56061;51.748;19.620;2023-10-19T15:05:19;7.59;82.81
69006;SHT31;56061;51.748;19.620;2023-10-19T15:07:47;7.57;82.94
69006;SHT31;56061;51.748;19.620;2023-10-19T15:10:19;7.55;83.01
69006;SHT31;56061;51.748;19.620;2023-10-19T15:12:49;7.52;83.15
69006;SHT31;56061;51.748;19.620;2023-10-19T15:15:15;7.50;83.28
69006;SHT31;56061;51.748;19.620;2023-10-19T15:17:45;7.48;83.37
69006;SHT31;56061;51.748;19.620;2023-10-19T15:20:13;7.46;83.43
69006;SHT31;56061;51.748;19.620;2023-10-19T15:22:41;7.42;83.57
69006;SHT31;56061;51.748;19.620;2023-10-19T15:25:09;7.38;83.72
69006;SHT31;56061;51.748;19.620;2023-10-19T15:27:42;7.35;83.94
69006;SHT31;56061;51.748;19.620;2023-10-19T15:30:10;7.29;84.04
69006;SHT31;56061;51.748;19.620;2023-10-19T15:32:38;7.22;84.21
69006;SHT31;56061;51.748;19.620;2023-10-19T15:35:11;7.18;84.41
69006;SHT31;56061;51.748;19.620;2023-10-19T15:37:41;7.16;84.57
69006;SHT31;56061;51.748;19.620;2023-10-19T15:40:08;7.14;84.77
69006;SHT31;56061;51.748;19.620;2023-10-19T15:42:39;7.14;84.85
69006;SHT31;56061;51.748;19.620;2023-10-19T15:45:13;7.15;84.98
69006;SHT31;56061;51.748;19.620;2023-10-19T15:47:43;7.14;85.07
69006;SHT31;56061;51.748;19.620;2023-10-19T15:50:11;7.16;85.14
69006;SHT31;56061;51.748;19.620;2023-10-19T15:52:38;7.21;85.27
69006;SHT31;56061;51.748;19.620;2023-10-19T15:55:10;7.22;85.32
69006;SHT31;56061;51.748;19.620;2023-10-19T15:57:40;7.20;85.31
69006;SHT31;56061;51.748;19.620;2023-10-19T16:00:07;7.18;85.47
69006;SHT31;56061;51.748;19.620;2023-10-19T16:02:39;7.16;85.50
69006;SHT31;56061;51.748;19.620;2023-10-19T16:05:07;7.14;85.59